sensor_id;sensor_type;location;lat;lon;timestamp;P1;durP1;ratioP1;P2;durP2;ratioP2
75718;SDS011;64340;48.534;-3.036;2023-03-04T00:02:18;3.03;;;1.10;;
75718;SDS011;64340;48.534;-3.036;2023-03-04T00:04:51;5.28;;;1.35;;
75718;SDS011;64340;48.534;-3.036;2023-03-04T00:07:17;6.50;;;1.30;;
75718;SDS011;64340;48.534;-3.036;2023-03-04T00:09:43;5.30;;;1.30;;
75718;SDS011;64340;48.534;-3.036;2023-03-04T00:12:14;6.07;;;1.20;;
75718;SDS011;64340;48.534;-3.036;2023-03-04T00:14:40;6.00;;;1.08;;
75718;SDS011;64340;48.534;-3.036;2023-03-04T00:17:09;6.32;;;1.23;;
75718;SDS011;64340;48.534;-3.036;2023-03-04T00:19:35;4.80;;;1.00;;
75718;SDS011;64340;48.534;-3.036;2023-03-04T00:22:04;2.50;;;0.80;;
75718;SDS011;64340;48.534;-3.036;2023-03-04T00:27:01;4.35;;;1.00;;
75718;SDS011;64340;48.534;-3.036;2023-03-04T00:29:27;3.17;;;1.10;;
75718;SDS011;64340;48.534;-3.036;2023-03-04T00:31:56;1.77;;;0.70;;
75718;SDS011;64340;48.534;-3.036;2023-03-04T00:34:22;2.28;;;0.90;;
75718;SDS011;64340;48.534;-3.036;2023-03-04T00:36:48;3.58;;;1.20;;
75718;SDS011;64340;48.534;-3.036;2023-03-04T00:39:15;4.22;;;1.00;;
75718;SDS011;64340;48.534;-3.036;2023-03-04T00:41:41;3.85;;;0.93;;
75718;SDS011;64340;48.534;-3.036;2023-03-04T00:44:09;2.35;;;1.00;;
75718;SDS011;64340;48.534;-3.036;2023-03-04T00:46:35;2.03;;;0.70;;
75718;SDS011;64340;48.534;-3.036;2023-03-04T00:49:01;2.63;;;0.77;;
75718;SDS011;64340;48.534;-3.036;2023-03-04T00:51:27;2.50;;;0.75;;
75718;SDS011;64340;48.534;-3.036;2023-03-04T00:53:53;6.40;;;0.90;;
75718;SDS011;64340;48.534;-3.036;2023-03-04T00:56:19;2.70;;;0.73;;
75718;SDS011;64340;48.534;-3.036;2023-03-04T00:58:50;4.70;;;0.90;;
75718;SDS011;64340;48.534;-3.036;2023-03-04T01:01:16;2.90;;;0.70;;
75718;SDS011;64340;48.534;-3.036;2023-03-04T01:03:42;4.57;;;1.15;;
75718;SDS011;64340;48.534;-3.036;2023-03-04T01:06:10;1.95;;;0.70;;
75718;SDS011;64340;48.534;-3.036;2023-03-04T01:08:36;2.58;;;0.60;;
75718;SDS011;64340;48.534;-3.036;2023-03-04T01:11:02;2.58;;;0.70;;
75718;SDS011;64340;48.534;-3.036;2023-03-04T01:13:28;2.10;;;0.52;;
75718;SDS011;64340;48.534;-3.036;2023-03-04T01:15:54;2.47;;;0.60;;
75718;SDS011;64340;48.534;-3.036;2023-03-04T01:18:21;1.75;;;0.73;;
75718;SDS011;64340;48.534;-3.036;2023-03-04T01:20:48;1.85;;;0.68;;
75718;SDS011;64340;48.534;-3.036;2023-03-04T01:23:14;1.73;;;0.45;;
75718;SDS011;64340;48.534;-3.036;2023-03-04T01:25:40;2.13;;;0.50;;
75718;SDS011;64340;48.534;-3.036;2023-03-04T01:28:06;2.00;;;0.40;;
75718;SDS011;64340;48.534;-3.036;2023-03-04T01:30:32;2.80;;;0.50;;
75718;SDS011;64340;48.534;-3.036;2023-03-04T01:32:59;2.25;;;0.52;;
75718;SDS011;64340;48.534;-3.036;2023-03-04T01:35:25;2.88;;;0.55;;
75718;SDS011;64340;48.534;-3.036;2023-03-04T01:37:54;0.98;;;0.40;;
75718;SDS011;64340;48.534;-3.036;2023-03-04T01:40:20;1.95;;;0.60;;
75718;SDS011;64340;48.534;-3.036;2023-03-04T01:42:47;1.10;;;0.40;;
75718;SDS011;64340;48.534;-3.036;2023-03-04T01:45:14;1.33;;;0.40;;
75718;SDS011;64340;48.534;-3.036;2023-03-04T01:47:44;1.38;;;0.40;;
75718;SDS011;64340;48.534;-3.036;2023-03-04T01:50:27;2.10;;;0.40;;
75718;SDS011;64340;48.534;-3.036;2023-03-04T01:52:59;2.00;;;0.50;;
75718;SDS011;64340;48.534;-3.036;2023-03-04T01:55:26;1.83;;;0.40;;
75718;SDS011;64340;48.534;-3.036;2023-03-04T01:57:54;1.33;;;0.30;;
75718;SDS011;64340;48.534;-3.036;2023-03-04T02:00:25;2.08;;;0.55;;
75718;SDS011;64340;48.534;-3.036;2023-03-04T02:03:06;3.10;;;0.77;;
75718;SDS011;64340;48.534;-3.036;2023-03-04T02:05:37;2.30;;;0.65;;
75718;SDS011;64340;48.534;-3.036;2023-03-04T02:08:06;2.15;;;0.40;;
75718;SDS011;64340;48.534;-3.036;2023-03-04T02:10:36;1.42;;;0.50;;
75718;SDS011;64340;48.534;-3.036;2023-03-04T02:13:03;2.70;;;1.00;;
75718;SDS011;64340;48.534;-3.036;2023-03-04T02:15:29;2.67;;;0.50;;
75718;SDS011;64340;48.534;-3.036;2023-03-04T02:17:56;1.15;;;0.30;;
75718;SDS011;64340;48.534;-3.036;2023-03-04T02:23:08;1.95;;;0.35;;
75718;SDS011;64340;48.534;-3.036;2023-03-04T02:28:58;0.93;;;0.40;;
75718;SDS011;64340;48.534;-3.036;2023-03-04T02:31:26;0.80;;;0.25;;
75718;SDS011;64340;48.534;-3.036;2023-03-04T02:34:01;1.35;;;0.50;;
75718;SDS011;64340;48.534;-3.036;2023-03-04T02:36:31;1.08;;;0.35;;
75718;SDS011;64340;48.534;-3.036;2023-03-04T02:39:04;0.80;;;0.32;;
75718;SDS011;64340;48.534;-3.036;2023-03-04T02:41:48;1.50;;;0.32;;
75718;SDS011;64340;48.534;-3.036;2023-03-04T02:44:16;1.23;;;0.30;;
75718;SDS011;64340;48.534;-3.036;2023-03-04T02:46:44;0.82;;;0.30;;
75718;SDS011;64340;48.534;-3.036;2023-03-04T02:49:10;1.10;;;0.40;;
75718;SDS011;64340;48.534;-3.036;2023-03-04T02:51:38;0.77;;;0.30;;
75718;SDS011;64340;48.534;-3.036;2023-03-04T02:54:24;1.45;;;0.30;;
75718;SDS011;64340;48.534;-3.036;2023-03-04T02:56:52;1.33;;;0.50;;
75718;SDS011;64340;48.534;-3.036;2023-03-04T02:59:22;1.92;;;0.35;;
75718;SDS011;64340;48.534;-3.036;2023-03-04T03:01:49;1.05;;;0.40;;
75718;SDS011;64340;48.534;-3.036;2023-03-04T03:04:17;0.75;;;0.30;;
75718;SDS011;64340;48.534;-3.036;2023-03-04T03:06:44;0.82;;;0.25;;
75718;SDS011;64340;48.534;-3.036;2023-03-04T03:09:10;1.42;;;0.30;;
75718;SDS011;64340;48.534;-3.036;2023-03-04T03:11:39;0.88;;;0.20;;
75718;SDS011;64340;48.534;-3.036;2023-03-04T03:14:05;0.70;;;0.30;;
75718;SDS011;64340;48.534;-3.036;2023-03-04T03:16:33;0.70;;;0.30;;
75718;SDS011;64340;48.534;-3.036;2023-03-04T03:19:04;1.27;;;0.30;;
75718;SDS011;64340;48.534;-3.036;2023-03-04T03:21:32;0.90;;;0.43;;
75718;SDS011;64340;48.534;-3.036;2023-03-04T03:24:01;0.57;;;0.20;;
75718;SDS011;64340;48.534;-3.036;2023-03-04T03:26:28;1.60;;;0.40;;
75718;SDS011;64340;48.534;-3.036;2023-03-04T03:28:56;1.48;;;0.40;;
75718;SDS011;64340;48.534;-3.036;2023-03-04T03:31:22;2.78;;;0.40;;
75718;SDS011;64340;48.534;-3.036;2023-03-04T03:33:52;0.95;;;0.30;;
75718;SDS011;64340;48.534;-3.036;2023-03-04T03:36:23;1.48;;;0.30;;
75718;SDS011;64340;48.534;-3.036;2023-03-04T03:38:49;1.40;;;0.30;;
75718;SDS011;64340;48.534;-3.036;2023-03-04T03:41:17;1.00;;;0.30;;
75718;SDS011;64340;48.534;-3.036;2023-03-04T03:43:43;0.90;;;0.28;;
75718;SDS011;64340;48.534;-3.036;2023-03-04T03:46:09;0.93;;;0.32;;
75718;SDS011;64340;48.534;-3.036;2023-03-04T03:48:35;1.23;;;0.35;;
75718;SDS011;64340;48.534;-3.036;2023-03-04T03:51:01;0.60;;;0.22;;
75718;SDS011;64340;48.534;-3.036;2023-03-04T03:53:30;1.13;;;0.20;;
75718;SDS011;64340;48.534;-3.036;2023-03-04T03:55:57;1.38;;;0.30;;
75718;SDS011;64340;48.534;-3.036;2023-03-04T03:58:23;0.80;;;0.30;;
75718;SDS011;64340;48.534;-3.036;2023-03-04T04:00:51;2.38;;;0.40;;
75718;SDS011;64340;48.534;-3.036;2023-03-04T04:03:17;1.10;;;0.30;;
75718;SDS011;64340;48.534;-3.036;2023-03-04T04:05:47;0.63;;;0.30;;
75718;SDS011;64340;48.534;-3.036;2023-03-04T04:08:14;1.25;;;0.30;;
75718;SDS011;64340;48.534;-3.036;2023-03-04T04:10:41;0.88;;;0.30;;
75718;SDS011;64340;48.534;-3.036;2023-03-04T04:13:10;0.73;;;0.22;;
75718;SDS011;64340;48.534;-3.036;2023-03-04T04:15:38;1.98;;;0.40;;
75718;SDS011;64340;48.534;-3.036;2023-03-04T04:18:04;0.85;;;0.30;;
75718;SDS011;64340;48.534;-3.036;2023-03-04T04:20:34;1.05;;;0.30;;
75718;SDS011;64340;48.534;-3.036;2023-03-04T04:25:26;1.48;;;0.30;;
75718;SDS011;64340;48.534;-3.036;2023-03-04T04:27:52;1.35;;;0.40;;
75718;SDS011;64340;48.534;-3.036;2023-03-04T04:30:19;0.90;;;0.30;;
75718;SDS011;64340;48.534;-3.036;2023-03-04T04:32:45;1.70;;;0.30;;
75718;SDS011;64340;48.534;-3.036;2023-03-04T04:35:11;1.35;;;0.38;;
75718;SDS011;64340;48.534;-3.036;2023-03-04T04:37:37;0.85;;;0.45;;
75718;SDS011;64340;48.534;-3.036;2023-03-04T04:40:03;2.25;;;0.40;;
75718;SDS011;64340;48.534;-3.036;2023-03-04T04:42:29;1.58;;;0.40;;
75718;SDS011;64340;48.534;-3.036;2023-03-04T04:44:56;1.55;;;0.40;;
75718;SDS011;64340;48.534;-3.036;2023-03-04T04:47:21;0.88;;;0.30;;
75718;SDS011;64340;48.534;-3.036;2023-03-04T04:49:47;0.95;;;0.20;;
75718;SDS011;64340;48.534;-3.036;2023-03-04T04:52:14;1.58;;;0.40;;
75718;SDS011;64340;48.534;-3.036;2023-03-04T04:54:43;1.10;;;0.35;;
75718;SDS011;64340;48.534;-3.036;2023-03-04T04:57:09;0.90;;;0.30;;
75718;SDS011;64340;48.534;-3.036;2023-03-04T04:59:35;1.35;;;0.40;;
75718;SDS011;64340;48.534;-3.036;2023-03-04T05:02:02;0.98;;;0.32;;
75718;SDS011;64340;48.534;-3.036;2023-03-04T05:04:30;1.33;;;0.40;;
75718;SDS011;64340;48.534;-3.036;2023-03-04T05:06:56;3.50;;;0.50;;
75718;SDS011;64340;48.534;-3.036;2023-03-04T05:09:22;1.40;;;0.38;;
75718;SDS011;64340;48.534;-3.036;2023-03-04T05:11:48;1.65;;;0.40;;
75718;SDS011;64340;48.534;-3.036;2023-03-04T05:14:14;1.00;;;0.30;;
75718;SDS011;64340;48.534;-3.036;2023-03-04T05:16:40;1.15;;;0.20;;
75718;SDS011;64340;48.534;-3.036;2023-03-04T05:19:06;2.22;;;0.47;;
75718;SDS011;64340;48.534;-3.036;2023-03-04T05:21:31;1.27;;;0.35;;
75718;SDS011;64340;48.534;-3.036;2023-03-04T05:23:59;1.70;;;0.35;;
75718;SDS011;64340;48.534;-3.036;2023-03-04T05:26:25;1.95;;;0.45;;
75718;SDS011;64340;48.534;-3.036;2023-03-04T05:28:51;1.17;;;0.40;;
75718;SDS011;64340;48.534;-3.036;2023-03-04T05:31:16;0.52;;;0.25;;
75718;SDS011;64340;48.534;-3.036;2023-03-04T05:33:42;1.52;;;0.30;;
75718;SDS011;64340;48.534;-3.036;2023-03-04T05:36:08;1.33;;;0.35;;
75718;SDS011;64340;48.534;-3.036;2023-03-04T05:38:34;1.83;;;0.43;;
75718;SDS011;64340;48.534;-3.036;2023-03-04T05:41:02;1.10;;;0.40;;
75718;SDS011;64340;48.534;-3.036;2023-03-04T05:43:30;1.52;;;0.40;;
75718;SDS011;64340;48.534;-3.036;2023-03-04T05:45:59;1.42;;;0.40;;
75718;SDS011;64340;48.534;-3.036;2023-03-04T05:48:28;1.10;;;0.45;;
75718;SDS011;64340;48.534;-3.036;2023-03-04T05:50:56;1.13;;;0.40;;
75718;SDS011;64340;48.534;-3.036;2023-03-04T05:53:24;1.20;;;0.32;;
75718;SDS011;64340;48.534;-3.036;2023-03-04T05:55:52;1.17;;;0.30;;
75718;SDS011;64340;48.534;-3.036;2023-03-04T05:58:19;1.65;;;0.50;;
75718;SDS011;64340;48.534;-3.036;2023-03-04T06:00:45;1.05;;;0.40;;
75718;SDS011;64340;48.534;-3.036;2023-03-04T06:03:16;1.52;;;0.50;;
75718;SDS011;64340;48.534;-3.036;2023-03-04T06:05:43;0.93;;;0.40;;
75718;SDS011;64340;48.534;-3.036;2023-03-04T06:08:10;1.15;;;0.20;;
75718;SDS011;64340;48.534;-3.036;2023-03-04T06:10:37;1.77;;;0.50;;
75718;SDS011;64340;48.534;-3.036;2023-03-04T06:13:04;1.17;;;0.40;;
75718;SDS011;64340;48.534;-3.036;2023-03-04T06:15:30;1.55;;;0.50;;
75718;SDS011;64340;48.534;-3.036;2023-03-04T06:17:56;2.22;;;0.63;;
75718;SDS011;64340;48.534;-3.036;2023-03-04T06:20:22;1.02;;;0.40;;
75718;SDS011;64340;48.534;-3.036;2023-03-04T06:22:48;1.30;;;0.52;;
75718;SDS011;64340;48.534;-3.036;2023-03-04T06:25:14;0.90;;;0.40;;
75718;SDS011;64340;48.534;-3.036;2023-03-04T06:27:40;1.70;;;0.32;;
75718;SDS011;64340;48.534;-3.036;2023-03-04T06:30:06;1.92;;;0.70;;
75718;SDS011;64340;48.534;-3.036;2023-03-04T06:32:34;2.53;;;0.70;;
75718;SDS011;64340;48.534;-3.036;2023-03-04T06:35:00;2.47;;;0.60;;
75718;SDS011;64340;48.534;-3.036;2023-03-04T06:37:26;2.05;;;0.40;;
75718;SDS011;64340;48.534;-3.036;2023-03-04T06:39:52;1.38;;;0.47;;
75718;SDS011;64340;48.534;-3.036;2023-03-04T06:42:18;1.05;;;0.50;;
75718;SDS011;64340;48.534;-3.036;2023-03-04T06:44:44;1.30;;;0.40;;
75718;SDS011;64340;48.534;-3.036;2023-03-04T06:47:10;1.60;;;0.40;;
75718;SDS011;64340;48.534;-3.036;2023-03-04T06:49:36;0.85;;;0.47;;
75718;SDS011;64340;48.534;-3.036;2023-03-04T06:52:02;1.23;;;0.45;;
75718;SDS011;64340;48.534;-3.036;2023-03-04T06:54:28;1.35;;;0.70;;
75718;SDS011;64340;48.534;-3.036;2023-03-04T06:56:54;1.50;;;0.40;;
75718;SDS011;64340;48.534;-3.036;2023-03-04T06:59:21;1.92;;;0.50;;
75718;SDS011;64340;48.534;-3.036;2023-03-04T07:01:47;1.05;;;0.40;;
75718;SDS011;64340;48.534;-3.036;2023-03-04T07:04:13;0.88;;;0.40;;
75718;SDS011;64340;48.534;-3.036;2023-03-04T07:06:39;2.17;;;0.57;;
75718;SDS011;64340;48.534;-3.036;2023-03-04T07:09:05;1.55;;;0.60;;
75718;SDS011;64340;48.534;-3.036;2023-03-04T07:11:31;2.28;;;0.70;;
75718;SDS011;64340;48.534;-3.036;2023-03-04T07:13:58;1.75;;;0.50;;
75718;SDS011;64340;48.534;-3.036;2023-03-04T07:16:23;1.25;;;0.50;;
75718;SDS011;64340;48.534;-3.036;2023-03-04T07:18:49;1.10;;;0.50;;
75718;SDS011;64340;48.534;-3.036;2023-03-04T07:21:16;3.75;;;1.10;;
75718;SDS011;64340;48.534;-3.036;2023-03-04T07:23:42;2.63;;;0.70;;
75718;SDS011;64340;48.534;-3.036;2023-03-04T07:26:09;2.38;;;1.10;;
75718;SDS011;64340;48.534;-3.036;2023-03-04T07:28:35;2.25;;;0.98;;
75718;SDS011;64340;48.534;-3.036;2023-03-04T07:31:08;5.22;;;1.52;;
75718;SDS011;64340;48.534;-3.036;2023-03-04T07:33:35;3.80;;;1.67;;
75718;SDS011;64340;48.534;-3.036;2023-03-04T07:36:01;3.30;;;1.58;;
75718;SDS011;64340;48.534;-3.036;2023-03-04T07:38:27;2.47;;;1.02;;
75718;SDS011;64340;48.534;-3.036;2023-03-04T07:40:55;4.82;;;1.80;;
75718;SDS011;64340;48.534;-3.036;2023-03-04T07:43:25;3.90;;;1.35;;
75718;SDS011;64340;48.534;-3.036;2023-03-04T07:45:52;3.40;;;1.33;;
75718;SDS011;64340;48.534;-3.036;2023-03-04T07:48:26;2.35;;;1.20;;
75718;SDS011;64340;48.534;-3.036;2023-03-04T07:51:09;3.53;;;1.65;;
75718;SDS011;64340;48.534;-3.036;2023-03-04T07:53:37;4.38;;;1.30;;
75718;SDS011;64340;48.534;-3.036;2023-03-04T07:56:05;2.83;;;1.17;;
75718;SDS011;64340;48.534;-3.036;2023-03-04T07:58:32;2.88;;;1.20;;
75718;SDS011;64340;48.534;-3.036;2023-03-04T08:01:05;5.35;;;2.00;;
75718;SDS011;64340;48.534;-3.036;2023-03-04T08:03:33;3.28;;;1.30;;
75718;SDS011;64340;48.534;-3.036;2023-03-04T08:05:59;4.10;;;2.03;;
75718;SDS011;64340;48.534;-3.036;2023-03-04T08:08:28;4.43;;;2.03;;
75718;SDS011;64340;48.534;-3.036;2023-03-04T08:10:54;4.28;;;1.80;;
75718;SDS011;64340;48.534;-3.036;2023-03-04T08:13:20;6.95;;;2.25;;
75718;SDS011;64340;48.534;-3.036;2023-03-04T08:15:46;3.78;;;1.73;;
75718;SDS011;64340;48.534;-3.036;2023-03-04T08:18:12;5.15;;;1.80;;
75718;SDS011;64340;48.534;-3.036;2023-03-04T08:20:41;4.70;;;1.85;;
75718;SDS011;64340;48.534;-3.036;2023-03-04T08:23:09;4.75;;;1.80;;
75718;SDS011;64340;48.534;-3.036;2023-03-04T08:25:37;4.82;;;2.40;;
75718;SDS011;64340;48.534;-3.036;2023-03-04T08:28:04;19.13;;;5.47;;
75718;SDS011;64340;48.534;-3.036;2023-03-04T08:30:31;12.55;;;4.55;;
75718;SDS011;64340;48.534;-3.036;2023-03-04T08:32:56;17.83;;;6.20;;
75718;SDS011;64340;48.534;-3.036;2023-03-04T08:35:22;24.10;;;6.63;;
75718;SDS011;64340;48.534;-3.036;2023-03-04T08:37:48;17.45;;;6.18;;
75718;SDS011;64340;48.534;-3.036;2023-03-04T08:40:14;29.92;;;13.05;;
75718;SDS011;64340;48.534;-3.036;2023-03-04T08:42:40;22.70;;;15.20;;
75718;SDS011;64340;48.534;-3.036;2023-03-04T08:45:06;18.95;;;12.90;;
75718;SDS011;64340;48.534;-3.036;2023-03-04T08:47:33;15.90;;;11.73;;
75718;SDS011;64340;48.534;-3.036;2023-03-04T08:49:59;16.75;;;11.98;;
75718;SDS011;64340;48.534;-3.036;2023-03-04T08:52:25;17.02;;;11.63;;
75718;SDS011;64340;48.534;-3.036;2023-03-04T08:54:52;16.75;;;10.57;;
75718;SDS011;64340;48.534;-3.036;2023-03-04T08:57:18;17.67;;;10.40;;
75718;SDS011;64340;48.534;-3.036;2023-03-04T08:59:44;15.43;;;10.48;;
75718;SDS011;64340;48.534;-3.036;2023-03-04T09:02:09;14.75;;;9.95;;
75718;SDS011;64340;48.534;-3.036;2023-03-04T09:04:37;18.13;;;9.93;;
75718;SDS011;64340;48.534;-3.036;2023-03-04T09:07:04;15.23;;;9.88;;
75718;SDS011;64340;48.534;-3.036;2023-03-04T09:09:30;18.15;;;10.82;;
75718;SDS011;64340;48.534;-3.036;2023-03-04T09:11:57;13.23;;;9.43;;
75718;SDS011;64340;48.534;-3.036;2023-03-04T09:14:22;13.60;;;8.52;;
75718;SDS011;64340;48.534;-3.036;2023-03-04T09:16:48;15.25;;;9.85;;
75718;SDS011;64340;48.534;-3.036;2023-03-04T09:19:14;13.95;;;9.35;;
75718;SDS011;64340;48.534;-3.036;2023-03-04T09:21:40;14.25;;;8.88;;
75718;SDS011;64340;48.534;-3.036;2023-03-04T09:24:05;24.00;;;12.73;;
75718;SDS011;64340;48.534;-3.036;2023-03-04T09:26:31;25.17;;;13.82;;
75718;SDS011;64340;48.534;-3.036;2023-03-04T09:28:58;14.13;;;9.65;;
75718;SDS011;64340;48.534;-3.036;2023-03-04T09:31:25;14.50;;;9.88;;
75718;SDS011;64340;48.534;-3.036;2023-03-04T09:33:52;14.15;;;9.63;;
75718;SDS011;64340;48.534;-3.036;2023-03-04T09:36:18;14.73;;;8.25;;
75718;SDS011;64340;48.534;-3.036;2023-03-04T09:38:44;15.40;;;9.05;;
75718;SDS011;64340;48.534;-3.036;2023-03-04T09:44:14;35.40;;;18.52;;
75718;SDS011;64340;48.534;-3.036;2023-03-04T09:46:54;26.30;;;14.52;;
75718;SDS011;64340;48.534;-3.036;2023-03-04T09:49:28;24.35;;;13.88;;
75718;SDS011;64340;48.534;-3.036;2023-03-04T09:52:17;23.00;;;13.80;;
75718;SDS011;64340;48.534;-3.036;2023-03-04T09:55:24;25.02;;;13.82;;
75718;SDS011;64340;48.534;-3.036;2023-03-04T10:00:42;21.50;;;12.90;;
75718;SDS011;64340;48.534;-3.036;2023-03-04T10:03:11;19.67;;;11.80;;
75718;SDS011;64340;48.534;-3.036;2023-03-04T10:11:16;15.75;;;10.60;;
75718;SDS011;64340;48.534;-3.036;2023-03-04T10:19:44;15.55;;;9.55;;
75718;SDS011;64340;48.534;-3.036;2023-03-04T10:22:52;16.90;;;10.18;;
75718;SDS011;64340;48.534;-3.036;2023-03-04T10:25:27;18.25;;;9.95;;
75718;SDS011;64340;48.534;-3.036;2023-03-04T10:28:17;97.43;;;46.08;;
75718;SDS011;64340;48.534;-3.036;2023-03-04T10:31:08;78.60;;;37.72;;
75718;SDS011;64340;48.534;-3.036;2023-03-04T10:33:59;63.03;;;31.23;;
75718;SDS011;64340;48.534;-3.036;2023-03-04T10:39:00;55.67;;;30.38;;
75718;SDS011;64340;48.534;-3.036;2023-03-04T10:41:34;37.42;;;21.25;;
75718;SDS011;64340;48.534;-3.036;2023-03-04T10:44:05;33.95;;;19.02;;
75718;SDS011;64340;48.534;-3.036;2023-03-04T10:46:42;24.02;;;12.60;;
75718;SDS011;64340;48.534;-3.036;2023-03-04T10:49:14;17.88;;;8.95;;
75718;SDS011;64340;48.534;-3.036;2023-03-04T10:51:44;14.50;;;8.52;;
75718;SDS011;64340;48.534;-3.036;2023-03-04T10:57:32;19.17;;;8.65;;
75718;SDS011;64340;48.534;-3.036;2023-03-04T11:00:01;20.70;;;9.90;;
75718;SDS011;64340;48.534;-3.036;2023-03-04T11:02:49;17.35;;;8.43;;
75718;SDS011;64340;48.534;-3.036;2023-03-04T11:05:47;20.15;;;10.02;;
75718;SDS011;64340;48.534;-3.036;2023-03-04T11:08:21;22.48;;;10.60;;
75718;SDS011;64340;48.534;-3.036;2023-03-04T11:10:48;23.88;;;11.82;;
75718;SDS011;64340;48.534;-3.036;2023-03-04T11:16:00;25.88;;;11.55;;
75718;SDS011;64340;48.534;-3.036;2023-03-04T11:21:12;28.38;;;12.35;;
75718;SDS011;64340;48.534;-3.036;2023-03-04T11:23:55;33.78;;;12.27;;
75718;SDS011;64340;48.534;-3.036;2023-03-04T11:26:35;27.95;;;11.98;;
75718;SDS011;64340;48.534;-3.036;2023-03-04T11:29:21;28.73;;;11.40;;
75718;SDS011;64340;48.534;-3.036;2023-03-04T11:32:04;29.92;;;10.52;;
75718;SDS011;64340;48.534;-3.036;2023-03-04T11:37:52;23.67;;;13.02;;
75718;SDS011;64340;48.534;-3.036;2023-03-04T11:40:28;29.90;;;15.23;;
75718;SDS011;64340;48.534;-3.036;2023-03-04T11:51:47;22.27;;;12.05;;
75718;SDS011;64340;48.534;-3.036;2023-03-04T12:14:42;12.63;;;4.55;;
75718;SDS011;64340;48.534;-3.036;2023-03-04T12:37:10;7.35;;;2.92;;
75718;SDS011;64340;48.534;-3.036;2023-03-04T12:46:03;5.97;;;2.55;;
75718;SDS011;64340;48.534;-3.036;2023-03-04T12:48:48;5.88;;;2.35;;
75718;SDS011;64340;48.534;-3.036;2023-03-04T12:59:46;5.45;;;2.38;;
75718;SDS011;64340;48.534;-3.036;2023-03-04T13:02:25;6.05;;;2.38;;
75718;SDS011;64340;48.534;-3.036;2023-03-04T13:10:51;6.22;;;2.15;;
75718;SDS011;64340;48.534;-3.036;2023-03-04T13:16:33;4.60;;;1.92;;
75718;SDS011;64340;48.534;-3.036;2023-03-04T13:19:01;4.20;;;2.10;;
75718;SDS011;64340;48.534;-3.036;2023-03-04T13:21:30;4.75;;;2.05;;
75718;SDS011;64340;48.534;-3.036;2023-03-04T13:23:59;3.03;;;2.05;;
75718;SDS011;64340;48.534;-3.036;2023-03-04T13:26:47;5.53;;;2.00;;
75718;SDS011;64340;48.534;-3.036;2023-03-04T13:34:46;3.55;;;1.58;;
75718;SDS011;64340;48.534;-3.036;2023-03-04T13:37:25;4.20;;;1.63;;
75718;SDS011;64340;48.534;-3.036;2023-03-04T13:42:45;4.75;;;1.70;;
75718;SDS011;64340;48.534;-3.036;2023-03-04T13:48:01;2.70;;;1.63;;
75718;SDS011;64340;48.534;-3.036;2023-03-04T13:50:33;3.55;;;1.58;;
75718;SDS011;64340;48.534;-3.036;2023-03-04T14:02:08;4.78;;;1.65;;
75718;SDS011;64340;48.534;-3.036;2023-03-04T14:04:37;3.47;;;1.42;;
75718;SDS011;64340;48.534;-3.036;2023-03-04T14:10:45;3.70;;;1.20;;
75718;SDS011;64340;48.534;-3.036;2023-03-04T14:12:48;3.78;;;1.92;;
75718;SDS011;64340;48.534;-3.036;2023-03-04T14:15:24;3.88;;;1.00;;
75718;SDS011;64340;48.534;-3.036;2023-03-04T14:17:53;3.20;;;1.63;;
75718;SDS011;64340;48.534;-3.036;2023-03-04T14:25:48;4.22;;;1.20;;
75718;SDS011;64340;48.534;-3.036;2023-03-04T14:28:15;2.83;;;1.00;;
75718;SDS011;64340;48.534;-3.036;2023-03-04T14:30:54;5.88;;;1.30;;
75718;SDS011;64340;48.534;-3.036;2023-03-04T14:33:24;5.22;;;1.30;;
75718;SDS011;64340;48.534;-3.036;2023-03-04T14:35:53;6.75;;;1.48;;
75718;SDS011;64340;48.534;-3.036;2023-03-04T14:38:28;2.85;;;1.10;;
75718;SDS011;64340;48.534;-3.036;2023-03-04T14:41:10;4.88;;;1.55;;
75718;SDS011;64340;48.534;-3.036;2023-03-04T14:43:57;4.07;;;1.40;;
75718;SDS011;64340;48.534;-3.036;2023-03-04T14:46:35;7.97;;;1.85;;
75718;SDS011;64340;48.534;-3.036;2023-03-04T14:49:08;8.57;;;2.00;;
75718;SDS011;64340;48.534;-3.036;2023-03-04T14:54:27;46.55;;;28.20;;
75718;SDS011;64340;48.534;-3.036;2023-03-04T14:57:00;78.22;;;49.33;;
75718;SDS011;64340;48.534;-3.036;2023-03-04T14:59:45;128.05;;;79.50;;
75718;SDS011;64340;48.534;-3.036;2023-03-04T15:02:19;138.50;;;91.32;;
75718;SDS011;64340;48.534;-3.036;2023-03-04T15:07:49;162.65;;;106.63;;
75718;SDS011;64340;48.534;-3.036;2023-03-04T15:10:19;167.18;;;111.65;;
75718;SDS011;64340;48.534;-3.036;2023-03-04T15:12:52;183.50;;;118.93;;
75718;SDS011;64340;48.534;-3.036;2023-03-04T15:15:34;205.02;;;131.63;;
75718;SDS011;64340;48.534;-3.036;2023-03-04T15:18:20;189.85;;;121.05;;
75718;SDS011;64340;48.534;-3.036;2023-03-04T15:20:58;192.52;;;123.50;;
75718;SDS011;64340;48.534;-3.036;2023-03-04T15:23:44;176.77;;;112.50;;
75718;SDS011;64340;48.534;-3.036;2023-03-04T15:26:11;186.75;;;125.35;;
75718;SDS011;64340;48.534;-3.036;2023-03-04T15:28:38;181.43;;;126.38;;
75718;SDS011;64340;48.534;-3.036;2023-03-04T15:31:20;178.20;;;114.40;;
75718;SDS011;64340;48.534;-3.036;2023-03-04T15:33:47;173.80;;;114.55;;
75718;SDS011;64340;48.534;-3.036;2023-03-04T15:36:15;160.32;;;106.97;;
75718;SDS011;64340;48.534;-3.036;2023-03-04T15:38:48;160.00;;;108.57;;
75718;SDS011;64340;48.534;-3.036;2023-03-04T15:41:24;163.05;;;111.10;;
75718;SDS011;64340;48.534;-3.036;2023-03-04T15:43:51;159.40;;;104.63;;
75718;SDS011;64340;48.534;-3.036;2023-03-04T15:46:18;157.63;;;103.05;;
75718;SDS011;64340;48.534;-3.036;2023-03-04T15:48:47;156.05;;;103.47;;
75718;SDS011;64340;48.534;-3.036;2023-03-04T15:51:14;140.77;;;94.70;;
75718;SDS011;64340;48.534;-3.036;2023-03-04T15:53:52;137.98;;;92.97;;
75718;SDS011;64340;48.534;-3.036;2023-03-04T15:56:22;131.63;;;85.63;;
75718;SDS011;64340;48.534;-3.036;2023-03-04T15:58:56;135.52;;;86.55;;
75718;SDS011;64340;48.534;-3.036;2023-03-04T16:01:26;131.68;;;84.80;;
75718;SDS011;64340;48.534;-3.036;2023-03-04T16:03:52;130.35;;;84.90;;
75718;SDS011;64340;48.534;-3.036;2023-03-04T16:06:18;124.28;;;82.70;;
75718;SDS011;64340;48.534;-3.036;2023-03-04T16:08:47;116.03;;;77.53;;
75718;SDS011;64340;48.534;-3.036;2023-03-04T16:11:19;117.93;;;79.90;;
75718;SDS011;64340;48.534;-3.036;2023-03-04T16:13:46;110.13;;;72.10;;
75718;SDS011;64340;48.534;-3.036;2023-03-04T16:16:14;109.13;;;72.38;;
75718;SDS011;64340;48.534;-3.036;2023-03-04T16:18:41;109.78;;;72.57;;
75718;SDS011;64340;48.534;-3.036;2023-03-04T16:21:12;104.25;;;68.72;;
75718;SDS011;64340;48.534;-3.036;2023-03-04T16:23:40;103.60;;;68.28;;
75718;SDS011;64340;48.534;-3.036;2023-03-04T16:26:16;99.53;;;64.50;;
75718;SDS011;64340;48.534;-3.036;2023-03-04T16:28:44;92.10;;;62.97;;
75718;SDS011;64340;48.534;-3.036;2023-03-04T16:31:11;98.38;;;62.28;;
75718;SDS011;64340;48.534;-3.036;2023-03-04T16:33:38;94.18;;;60.00;;
75718;SDS011;64340;48.534;-3.036;2023-03-04T16:36:14;92.95;;;63.85;;
75718;SDS011;64340;48.534;-3.036;2023-03-04T16:38:47;85.20;;;56.70;;
75718;SDS011;64340;48.534;-3.036;2023-03-04T16:41:16;87.95;;;60.83;;
75718;SDS011;64340;48.534;-3.036;2023-03-04T16:43:46;86.50;;;56.63;;
75718;SDS011;64340;48.534;-3.036;2023-03-04T16:46:12;80.32;;;53.00;;
75718;SDS011;64340;48.534;-3.036;2023-03-04T16:48:39;83.35;;;53.33;;
75718;SDS011;64340;48.534;-3.036;2023-03-04T16:51:15;81.45;;;50.45;;
75718;SDS011;64340;48.534;-3.036;2023-03-04T16:53:57;77.95;;;52.00;;
75718;SDS011;64340;48.534;-3.036;2023-03-04T16:56:24;77.80;;;49.20;;
75718;SDS011;64340;48.534;-3.036;2023-03-04T16:58:50;76.22;;;51.20;;
75718;SDS011;64340;48.534;-3.036;2023-03-04T17:01:22;70.32;;;45.95;;
75718;SDS011;64340;48.534;-3.036;2023-03-04T17:03:50;71.10;;;45.83;;
75718;SDS011;64340;48.534;-3.036;2023-03-04T17:06:20;70.68;;;47.83;;
75718;SDS011;64340;48.534;-3.036;2023-03-04T17:08:47;68.03;;;44.00;;
75718;SDS011;64340;48.534;-3.036;2023-03-04T17:11:17;63.47;;;43.50;;